sensor_id;sensor_type;location;lat;lon;timestamp;noise_LAeq;noise_LA_min;noise_LA_max;noise_LA01;noise_LA95
77135;Laerm;48586;50.122;18.972;2023-11-21T00:02:49;56.94;53.08;63.41;;
77135;Laerm;48586;50.122;18.972;2023-11-21T00:05:58;56.93;53.08;65.32;;
77135;Laerm;48586;50.122;18.972;2023-11-21T00:09:04;56.88;53.16;63.66;;
77135;Laerm;48586;50.122;18.972;2023-11-21T00:12:11;57.10;53.14;63.30;;
77135;Laerm;48586;50.122;18.972;2023-11-21T00:15:17;57.10;53.15;63.92;;
77135;Laerm;48586;50.122;18.972;2023-11-21T00:18:26;57.12;53.05;63.30;;
77135;Laerm;48586;50.122;18.972;2023-11-21T00:21:34;57.23;53.21;63.06;;
77135;Laerm;48586;50.122;18.972;2023-11-21T00:24:43;57.21;53.15;64.01;;
77135;Laerm;48586;50.122;18.972;2023-11-21T00:27:49;57.22;53.21;63.85;;
77135;Laerm;48586;50.122;18.972;2023-11-21T00:30:56;57.22;53.13;63.37;;
77135;Laerm;48586;50.122;18.972;2023-11-21T00:34:03;57.26;53.31;64.00;;
77135;Laerm;48586;50.122;18.972;2023-11-21T00:37:14;57.09;52.49;63.62;;
77135;Laerm;48586;50.122;18.972;2023-11-21T00:40:19;57.20;53.26;63.92;;
77135;Laerm;48586;50.122;18.972;2023-11-21T00:43:25;57.39;53.06;63.58;;
77135;Laerm;48586;50.122;18.972;2023-11-21T00:46:30;57.40;53.23;62.94;;
77135;Laerm;48586;50.122;18.972;2023-11-21T00:49:36;57.41;53.36;62.92;;
77135;Laerm;48586;50.122;18.972;2023-11-21T00:52:43;57.42;53.40;63.06;;
77135;Laerm;48586;50.122;18.972;2023-11-21T00:55:50;57.40;53.36;63.19;;
77135;Laerm;48586;50.122;18.972;2023-11-21T00:59:00;57.48;53.35;63.62;;
77135;Laerm;48586;50.122;18.972;2023-11-21T01:02:06;57.44;53.38;63.09;;
77135;Laerm;48586;50.122;18.972;2023-11-21T01:05:12;57.55;53.37;64.74;;
77135;Laerm;48586;50.122;18.972;2023-11-21T01:08:20;57.53;53.44;63.66;;
77135;Laerm;48586;50.122;18.972;2023-11-21T01:11:25;57.53;53.44;64.42;;
77135;Laerm;48586;50.122;18.972;2023-11-21T01:14:32;57.66;53.63;63.46;;
77135;Laerm;48586;50.122;18.972;2023-11-21T01:17:37;57.64;53.62;66.03;;
77135;Laerm;48586;50.122;18.972;2023-11-21T01:20:43;57.68;53.58;66.21;;
77135;Laerm;48586;50.122;18.972;2023-11-21T01:23:50;57.63;53.44;64.68;;
77135;Laerm;48586;50.122;18.972;2023-11-21T01:26:57;57.87;53.67;65.90;;
77135;Laerm;48586;50.122;18.972;2023-11-21T01:30:03;57.73;53.74;63.81;;
77135;Laerm;48586;50.122;18.972;2023-11-21T01:33:11;57.73;53.41;63.36;;
77135;Laerm;48586;50.122;18.972;2023-11-21T01:36:17;57.72;53.56;64.31;;
77135;Laerm;48586;50.122;18.972;2023-11-21T01:39:27;57.71;53.63;63.45;;
77135;Laerm;48586;50.122;18.972;2023-11-21T01:42:34;57.60;53.61;62.95;;
77135;Laerm;48586;50.122;18.972;2023-11-21T01:45:40;57.57;53.46;63.52;;
77135;Laerm;48586;50.122;18.972;2023-11-21T01:48:48;57.53;53.40;63.02;;
77135;Laerm;48586;50.122;18.972;2023-11-21T01:51:56;57.59;53.44;64.74;;
77135;Laerm;48586;50.122;18.972;2023-11-21T01:55:07;57.66;53.76;63.48;;
77135;Laerm;48586;50.122;18.972;2023-11-21T01:58:16;57.61;53.54;64.70;;
77135;Laerm;48586;50.122;18.972;2023-11-21T02:01:21;57.74;53.67;63.74;;
77135;Laerm;48586;50.122;18.972;2023-11-21T02:04:30;58.32;53.80;67.29;;
77135;Laerm;48586;50.122;18.972;2023-11-21T02:07:36;57.82;53.67;63.70;;
77135;Laerm;48586;50.122;18.972;2023-11-21T02:10:44;57.83;53.58;63.91;;
77135;Laerm;48586;50.122;18.972;2023-11-21T02:13:49;57.77;53.77;63.01;;
77135;Laerm;48586;50.122;18.972;2023-11-21T02:16:57;57.53;53.76;63.34;;
77135;Laerm;48586;50.122;18.972;2023-11-21T02:20:04;57.57;53.36;63.73;;
77135;Laerm;48586;50.122;18.972;2023-11-21T02:26:53;57.96;53.79;64.32;;
77135;Laerm;48586;50.122;18.972;2023-11-21T02:30:00;57.97;53.82;63.66;;
77135;Laerm;48586;50.122;18.972;2023-11-21T02:33:07;58.04;53.60;64.67;;
77135;Laerm;48586;50.122;18.972;2023-11-21T02:36:14;58.09;53.98;64.20;;
77135;Laerm;48586;50.122;18.972;2023-11-21T02:39:19;58.07;53.93;63.49;;
77135;Laerm;48586;50.122;18.972;2023-11-21T02:42:30;58.12;54.13;65.54;;
77135;Laerm;48586;50.122;18.972;2023-11-21T02:45:37;58.09;53.87;65.27;;
77135;Laerm;48586;50.122;18.972;2023-11-21T02:48:44;58.14;53.87;64.72;;
77135;Laerm;48586;50.122;18.972;2023-11-21T02:51:50;58.16;54.01;68.31;;
77135;Laerm;48586;50.122;18.972;2023-11-21T02:54:57;58.18;53.94;64.56;;
77135;Laerm;48586;50.122;18.972;2023-11-21T02:58:04;58.17;53.84;64.14;;
77135;Laerm;48586;50.122;18.972;2023-11-21T03:01:11;58.29;54.16;69.19;;
77135;Laerm;48586;50.122;18.972;2023-11-21T03:04:16;58.35;53.81;73.30;;
77135;Laerm;48586;50.122;18.972;2023-11-21T03:07:24;58.40;54.09;66.63;;
77135;Laerm;48586;50.122;18.972;2023-11-21T03:10:30;58.07;54.00;65.79;;
77135;Laerm;48586;50.122;18.972;2023-11-21T03:13:39;58.38;54.07;64.31;;
77135;Laerm;48586;50.122;18.972;2023-11-21T03:16:44;58.23;53.96;71.06;;
77135;Laerm;48586;50.122;18.972;2023-11-21T03:19:51;58.60;54.40;70.98;;
77135;Laerm;48586;50.122;18.972;2023-11-21T03:22:58;58.17;53.76;65.45;;
77135;Laerm;48586;50.122;18.972;2023-11-21T03:26:05;58.35;53.74;69.25;;
77135;Laerm;48586;50.122;18.972;2023-11-21T03:29:14;58.12;54.10;64.79;;
77135;Laerm;48586;50.122;18.972;2023-11-21T03:32:21;58.14;54.13;64.30;;
77135;Laerm;48586;50.122;18.972;2023-11-21T03:35:26;58.23;54.08;68.57;;
77135;Laerm;48586;50.122;18.972;2023-11-21T03:38:33;58.23;54.25;73.75;;
77135;Laerm;48586;50.122;18.972;2023-11-21T03:41:39;58.51;54.19;74.65;;
77135;Laerm;48586;50.122;18.972;2023-11-21T03:44:48;58.58;54.17;65.50;;
77135;Laerm;48586;50.122;18.972;2023-11-21T03:47:53;58.17;53.83;64.87;;
77135;Laerm;48586;50.122;18.972;2023-11-21T03:50:59;58.28;54.21;63.58;;
77135;Laerm;48586;50.122;18.972;2023-11-21T03:54:04;58.17;54.22;67.78;;
77135;Laerm;48586;50.122;18.972;2023-11-21T03:57:12;58.56;54.20;66.60;;
77135;Laerm;48586;50.122;18.972;2023-11-21T04:00:22;58.14;53.99;64.16;;
77135;Laerm;48586;50.122;18.972;2023-11-21T04:03:29;58.43;54.07;70.76;;
77135;Laerm;48586;50.122;18.972;2023-11-21T04:06:33;58.69;54.16;65.30;;
77135;Laerm;48586;50.122;18.972;2023-11-21T04:09:41;58.75;54.06;64.13;;
77135;Laerm;48586;50.122;18.972;2023-11-21T04:12:46;58.59;54.12;64.54;;
77135;Laerm;48586;50.122;18.972;2023-11-21T04:15:55;58.80;54.31;64.97;;
77135;Laerm;48586;50.122;18.972;2023-11-21T04:19:00;59.03;54.10;65.10;;
77135;Laerm;48586;50.122;18.972;2023-11-21T04:22:06;59.24;54.71;65.36;;
77135;Laerm;48586;50.122;18.972;2023-11-21T04:25:15;58.72;54.58;70.83;;
77135;Laerm;48586;50.122;18.972;2023-11-21T04:28:21;59.22;54.34;64.85;;
77135;Laerm;48586;50.122;18.972;2023-11-21T04:31:29;59.10;54.56;64.91;;
77135;Laerm;48586;50.122;18.972;2023-11-21T04:34:35;58.71;54.43;64.80;;
77135;Laerm;48586;50.122;18.972;2023-11-21T04:37:41;58.60;54.58;64.13;;
77135;Laerm;48586;50.122;18.972;2023-11-21T04:40:48;59.25;54.31;64.83;;
77135;Laerm;48586;50.122;18.972;2023-11-21T04:43:53;59.09;55.11;63.87;;
77135;Laerm;48586;50.122;18.972;2023-11-21T04:47:01;59.51;54.64;65.01;;
77135;Laerm;48586;50.122;18.972;2023-11-21T04:50:08;58.81;54.59;64.24;;
77135;Laerm;48586;50.122;18.972;2023-11-21T04:53:14;59.17;54.60;65.98;;
77135;Laerm;48586;50.122;18.972;2023-11-21T04:56:20;59.20;55.15;69.92;;
77135;Laerm;48586;50.122;18.972;2023-11-21T04:59:26;59.12;54.68;64.77;;
77135;Laerm;48586;50.122;18.972;2023-11-21T05:02:34;59.42;54.92;66.67;;
77135;Laerm;48586;50.122;18.972;2023-11-21T05:05:42;59.37;54.84;66.05;;
77135;Laerm;48586;50.122;18.972;2023-11-21T05:08:47;59.89;55.34;65.86;;
77135;Laerm;48586;50.122;18.972;2023-11-21T05:11:54;60.03;55.54;65.45;;
77135;Laerm;48586;50.122;18.972;2023-11-21T05:14:59;59.68;55.20;65.75;;
77135;Laerm;48586;50.122;18.972;2023-11-21T05:18:09;59.99;54.91;68.50;;
77135;Laerm;48586;50.122;18.972;2023-11-21T05:21:16;59.63;55.28;64.95;;
77135;Laerm;48586;50.122;18.972;2023-11-21T05:24:24;59.53;54.88;65.28;;
77135;Laerm;48586;50.122;18.972;2023-11-21T05:27:30;59.74;55.28;65.79;;
77135;Laerm;48586;50.122;18.972;2023-11-21T05:30:37;59.38;54.96;65.26;;
77135;Laerm;48586;50.122;18.972;2023-11-21T05:33:45;59.31;54.89;64.54;;
77135;Laerm;48586;50.122;18.972;2023-11-21T05:36:51;59.41;54.49;64.47;;
77135;Laerm;48586;50.122;18.972;2023-11-21T05:39:55;59.19;54.92;64.34;;
77135;Laerm;48586;50.122;18.972;2023-11-21T05:43:02;59.79;54.70;67.96;;
77135;Laerm;48586;50.122;18.972;2023-11-21T05:46:06;60.02;55.72;64.54;;
77135;Laerm;48586;50.122;18.972;2023-11-21T05:49:14;59.92;55.89;64.81;;
77135;Laerm;48586;50.122;18.972;2023-11-21T05:52:21;59.69;54.64;64.74;;
77135;Laerm;48586;50.122;18.972;2023-11-21T05:55:27;59.81;54.88;65.65;;
77135;Laerm;48586;50.122;18.972;2023-11-21T05:58:33;59.59;54.97;64.79;;
77135;Laerm;48586;50.122;18.972;2023-11-21T06:01:38;59.90;55.09;65.79;;
77135;Laerm;48586;50.122;18.972;2023-11-21T06:04:46;59.73;54.94;68.78;;
77135;Laerm;48586;50.122;18.972;2023-11-21T06:07:55;59.87;55.43;71.78;;
77135;Laerm;48586;50.122;18.972;2023-11-21T06:11:01;59.75;55.11;65.66;;
77135;Laerm;48586;50.122;18.972;2023-11-21T06:14:08;59.90;54.97;64.93;;
77135;Laerm;48586;50.122;18.972;2023-11-21T06:17:13;59.39;54.85;65.11;;
77135;Laerm;48586;50.122;18.972;2023-11-21T06:20:23;59.90;55.34;66.25;;
77135;Laerm;48586;50.122;18.972;2023-11-21T06:23:29;60.37;54.89;79.44;;
77135;Laerm;48586;50.122;18.972;2023-11-21T06:26:35;59.78;55.13;64.52;;
77135;Laerm;48586;50.122;18.972;2023-11-21T06:29:41;59.64;55.17;64.70;;
77135;Laerm;48586;50.122;18.972;2023-11-21T06:32:48;60.66;55.44;65.69;;
77135;Laerm;48586;50.122;18.972;2023-11-21T06:35:57;60.18;54.98;66.40;;
77135;Laerm;48586;50.122;18.972;2023-11-21T06:39:07;60.36;54.99;66.75;;
77135;Laerm;48586;50.122;18.972;2023-11-21T06:42:13;60.50;55.17;65.77;;
77135;Laerm;48586;50.122;18.972;2023-11-21T06:45:18;63.18;55.57;82.59;;
77135;Laerm;48586;50.122;18.972;2023-11-21T06:48:23;69.20;55.56;83.23;;
77135;Laerm;48586;50.122;18.972;2023-11-21T06:51:33;60.12;55.36;66.19;;
77135;Laerm;48586;50.122;18.972;2023-11-21T06:54:38;60.59;56.13;67.18;;
77135;Laerm;48586;50.122;18.972;2023-11-21T06:57:44;60.35;55.43;66.96;;
77135;Laerm;48586;50.122;18.972;2023-11-21T07:00:49;60.04;54.82;66.02;;
77135;Laerm;48586;50.122;18.972;2023-11-21T07:03:56;60.33;55.36;65.15;;
77135;Laerm;48586;50.122;18.972;2023-11-21T07:07:06;59.86;55.25;64.93;;
77135;Laerm;48586;50.122;18.972;2023-11-21T07:10:12;60.12;55.46;65.81;;
77135;Laerm;48586;50.122;18.972;2023-11-21T07:13:17;59.67;54.90;65.05;;
77135;Laerm;48586;50.122;18.972;2023-11-21T07:16:24;59.38;54.93;64.65;;
77135;Laerm;48586;50.122;18.972;2023-11-21T07:19:29;59.36;54.64;65.93;;
77135;Laerm;48586;50.122;18.972;2023-11-21T07:22:38;59.56;54.89;66.21;;
77135;Laerm;48586;50.122;18.972;2023-11-21T07:25:43;59.37;54.64;70.71;;
77135;Laerm;48586;50.122;18.972;2023-11-21T07:28:51;59.66;54.61;67.31;;
77135;Laerm;48586;50.122;18.972;2023-11-21T07:31:56;59.50;54.39;66.66;;
77135;Laerm;48586;50.122;18.972;2023-11-21T07:35:04;59.35;54.81;64.72;;
77135;Laerm;48586;50.122;18.972;2023-11-21T07:38:13;59.52;54.77;65.04;;
77135;Laerm;48586;50.122;18.972;2023-11-21T07:41:19;59.65;54.88;68.78;;
77135;Laerm;48586;50.122;18.972;2023-11-21T07:44:25;59.34;54.65;64.10;;
77135;Laerm;48586;50.122;18.972;2023-11-21T07:47:31;59.45;54.16;65.56;;
77135;Laerm;48586;50.122;18.972;2023-11-21T07:50:38;58.63;54.24;64.15;;
77135;Laerm;48586;50.122;18.972;2023-11-21T07:53:46;59.41;54.68;65.44;;
77135;Laerm;48586;50.122;18.972;2023-11-21T07:56:52;59.64;54.51;66.22;;
77135;Laerm;48586;50.122;18.972;2023-11-21T07:59:59;58.48;53.63;64.38;;
77135;Laerm;48586;50.122;18.972;2023-11-21T08:03:14;59.14;54.60;65.31;;
77135;Laerm;48586;50.122;18.972;2023-11-21T08:06:22;58.74;54.01;63.29;;
77135;Laerm;48586;50.122;18.972;2023-11-21T08:09:32;58.60;53.81;73.04;;
77135;Laerm;48586;50.122;18.972;2023-11-21T08:12:44;58.29;53.81;64.23;;
77135;Laerm;48586;50.122;18.972;2023-11-21T08:15:50;58.60;53.91;64.39;;
77135;Laerm;48586;50.122;18.972;2023-11-21T08:18:57;58.00;53.41;63.05;;
77135;Laerm;48586;50.122;18.972;2023-11-21T08:22:02;58.61;53.49;63.65;;
77135;Laerm;48586;50.122;18.972;2023-11-21T08:25:13;58.21;54.03;64.34;;
77135;Laerm;48586;50.122;18.972;2023-11-21T08:28:22;58.52;53.86;63.69;;
77135;Laerm;48586;50.122;18.972;2023-11-21T08:31:29;61.11;53.89;84.23;;
77135;Laerm;48586;50.122;18.972;2023-11-21T08:34:35;58.20;53.62;63.71;;
77135;Laerm;48586;50.122;18.972;2023-11-21T08:37:42;58.78;54.14;63.67;;
77135;Laerm;48586;50.122;18.972;2023-11-21T08:40:49;59.07;53.87;65.63;;
77135;Laerm;48586;50.122;18.972;2023-11-21T08:43:55;57.75;53.66;63.14;;
77135;Laerm;48586;50.122;18.972;2023-11-21T08:47:00;59.25;53.84;70.50;;
77135;Laerm;48586;50.122;18.972;2023-11-21T08:50:09;58.34;53.75;63.53;;
77135;Laerm;48586;50.122;18.972;2023-11-21T08:53:15;58.16;53.61;63.49;;
77135;Laerm;48586;50.122;18.972;2023-11-21T08:56:23;58.37;53.58;67.63;;
77135;Laerm;48586;50.122;18.972;2023-11-21T08:59:29;57.96;53.54;63.75;;
77135;Laerm;48586;50.122;18.972;2023-11-21T09:02:36;58.15;53.80;63.28;;
77135;Laerm;48586;50.122;18.972;2023-11-21T09:05:43;57.97;53.40;63.45;;
77135;Laerm;48586;50.122;18.972;2023-11-21T09:08:48;58.25;53.51;63.60;;
77135;Laerm;48586;50.122;18.972;2023-11-21T09:11:57;57.86;53.71;63.00;;
77135;Laerm;48586;50.122;18.972;2023-11-21T09:15:09;58.27;53.40;66.55;;
77135;Laerm;48586;50.122;18.972;2023-11-21T09:18:14;57.75;53.14;63.94;;
77135;Laerm;48586;50.122;18.972;2023-11-21T09:21:22;72.14;52.72;83.94;;
77135;Laerm;48586;50.122;18.972;2023-11-21T09:24:28;57.50;53.12;64.12;;
77135;Laerm;48586;50.122;18.972;2023-11-21T09:27:37;57.37;52.82;63.14;;
77135;Laerm;48586;50.122;18.972;2023-11-21T09:30:43;57.32;53.25;62.72;;
77135;Laerm;48586;50.122;18.972;2023-11-21T09:33:49;57.19;53.12;62.23;;
77135;Laerm;48586;50.122;18.972;2023-11-21T09:36:57;57.80;53.22;63.72;;
77135;Laerm;48586;50.122;18.972;2023-11-21T09:40:11;57.48;52.61;62.47;;
77135;Laerm;48586;50.122;18.972;2023-11-21T09:43:22;56.89;52.69;62.45;;
77135;Laerm;48586;50.122;18.972;2023-11-21T09:46:30;57.27;52.92;63.63;;
77135;Laerm;48586;50.122;18.972;2023-11-21T09:49:38;58.82;53.34;71.30;;
77135;Laerm;48586;50.122;18.972;2023-11-21T09:52:57;57.14;53.07;62.60;;
77135;Laerm;48586;50.122;18.972;2023-11-21T09:56:04;57.24;52.67;65.30;;
77135;Laerm;48586;50.122;18.972;2023-11-21T09:59:16;56.94;52.73;62.92;;
77135;Laerm;48586;50.122;18.972;2023-11-21T10:02:26;57.26;52.93;62.09;;
77135;Laerm;48586;50.122;18.972;2023-11-21T10:05:34;57.15;52.63;69.88;;
77135;Laerm;48586;50.122;18.972;2023-11-21T10:08:41;57.43;52.81;63.04;;
77135;Laerm;48586;50.122;18.972;2023-11-21T10:11:49;56.77;52.66;64.19;;
77135;Laerm;48586;50.122;18.972;2023-11-21T10:14:59;56.35;52.13;61.19;;
77135;Laerm;48586;50.122;18.972;2023-11-21T10:18:09;56.71;52.08;62.65;;
77135;Laerm;48586;50.122;18.972;2023-11-21T10:21:15;56.24;52.09;61.72;;
77135;Laerm;48586;50.122;18.972;2023-11-21T10:24:21;56.86;52.30;63.87;;
77135;Laerm;48586;50.122;18.972;2023-11-21T10:27:27;57.73;53.13;65.73;;
77135;Laerm;48586;50.122;18.972;2023-11-21T10:30:38;59.99;54.41;72.56;;
77135;Laerm;48586;50.122;18.972;2023-11-21T10:33:44;59.78;53.36;69.15;;
77135;Laerm;48586;50.122;18.972;2023-11-21T10:36:50;59.04;53.09;78.72;;
77135;Laerm;48586;50.122;18.972;2023-11-21T10:39:58;73.48;54.11;86.59;;
77135;Laerm;48586;50.122;18.972;2023-11-21T10:43:08;57.85;53.84;66.69;;
77135;Laerm;48586;50.122;18.972;2023-11-21T10:46:18;58.06;53.39;73.98;;
77135;Laerm;48586;50.122;18.972;2023-11-21T10:49:27;57.48;53.11;63.06;;
77135;Laerm;48586;50.122;18.972;2023-11-21T10:52:33;57.91;53.54;67.95;;
77135;Laerm;48586;50.122;18.972;2023-11-21T10:55:41;57.91;53.76;63.10;;
77135;Laerm;48586;50.122;18.972;2023-11-21T10:58:50;58.09;53.88;63.80;;
77135;Laerm;48586;50.122;18.972;2023-11-21T11:02:12;69.00;53.58;81.09;;
77135;Laerm;48586;50.122;18.972;2023-11-21T11:05:29;58.30;53.90;65.54;;
77135;Laerm;48586;50.122;18.972;2023-11-21T11:08:36;58.53;54.25;68.45;;
77135;Laerm;48586;50.122;18.972;2023-11-21T11:11:41;58.56;54.04;64.94;;
77135;Laerm;48586;50.122;18.972;2023-11-21T11:14:48;58.55;54.33;67.33;;
77135;Laerm;48586;50.122;18.972;2023-11-21T11:17:57;58.34;53.89;64.50;;
77135;Laerm;48586;50.122;18.972;2023-11-21T11:21:20;58.40;53.75;64.71;;
77135;Laerm;48586;50.122;18.972;2023-11-21T11:24:59;58.32;53.80;68.68;;
77135;Laerm;48586;50.122;18.972;2023-11-21T11:28:38;57.98;53.50;65.89;;
77135;Laerm;48586;50.122;18.972;2023-11-21T11:32:05;57.63;53.55;63.88;;
77135;Laerm;48586;50.122;18.972;2023-11-21T11:35:26;57.62;53.17;63.17;;
77135;Laerm;48586;50.122;18.972;2023-11-21T11:38:35;57.88;53.11;69.87;;
77135;Laerm;48586;50.122;18.972;2023-11-21T11:41:45;57.64;53.64;62.62;;
77135;Laerm;48586;50.122;18.972;2023-11-21T11:44:53;57.81;53.39;75.26;;
77135;Laerm;48586;50.122;18.972;2023-11-21T11:48:02;58.26;53.73;69.12;;
77135;Laerm;48586;50.122;18.972;2023-11-21T11:51:16;57.46;53.59;64.87;;
77135;Laerm;48586;50.122;18.972;2023-11-21T11:54:37;57.38;53.42;63.05;;
77135;Laerm;48586;50.122;18.972;2023-11-21T11:57:43;57.60;53.20;63.16;;
77135;Laerm;48586;50.122;18.972;2023-11-21T12:00:51;57.76;53.51;63.09;;
77135;Laerm;48586;50.122;18.972;2023-11-21T12:04:24;57.75;53.62;62.51;;
77135;Laerm;48586;50.122;18.972;2023-11-21T12:07:43;57.77;53.33;62.61;;
77135;Laerm;48586;50.122;18.972;2023-11-21T12:10:48;57.38;53.23;63.00;;
77135;Laerm;48586;50.122;18.972;2023-11-21T12:13:57;57.56;53.53;62.88;;
77135;Laerm;48586;50.122;18.972;2023-11-21T12:17:03;58.04;53.53;62.41;;
77135;Laerm;48586;50.122;18.972;2023-11-21T12:20:11;57.62;53.29;67.08;;
77135;Laerm;48586;50.122;18.972;2023-11-21T12:23:22;57.84;53.38;64.22;;
77135;Laerm;48586;50.122;18.972;2023-11-21T12:26:28;57.84;53.61;63.81;;
77135;Laerm;48586;50.122;18.972;2023-11-21T12:29:33;58.41;53.76;65.77;;
77135;Laerm;48586;50.122;18.972;2023-11-21T12:32:42;58.12;54.00;63.48;;
77135;Laerm;48586;50.122;18.972;2023-11-21T12:35:47;58.23;53.68;64.80;;
77135;Laerm;48586;50.122;18.972;2023-11-21T12:38:58;58.15;53.69;63.82;;
77135;Laerm;48586;50.122;18.972;2023-11-21T12:42:05;57.73;53.66;62.93;;
77135;Laerm;48586;50.122;18.972;2023-11-21T12:45:21;58.49;53.73;66.44;;
77135;Laerm;48586;50.122;18.972;2023-11-21T12:48:29;58.10;53.79;64.62;;
77135;Laerm;48586;50.122;18.972;2023-11-21T12:51:37;58.83;54.26;64.49;;
77135;Laerm;48586;50.122;18.972;2023-11-21T12:54:47;57.92;53.79;63.09;;
77135;Laerm;48586;50.122;18.972;2023-11-21T12:57:55;58.27;53.72;68.94;;
77135;Laerm;48586;50.122;18.972;2023-11-21T13:01:00;58.42;53.96;72.52;;
77135;Laerm;48586;50.122;18.972;2023-11-21T13:04:08;58.33;53.88;70.12;;
77135;Laerm;48586;50.122;18.972;2023-11-21T13:07:16;58.56;53.54;75.19;;
77135;Laerm;48586;50.122;18.972;2023-11-21T13:10:28;58.86;53.92;64.17;;
77135;Laerm;48586;50.122;18.972;2023-11-21T13:13:34;58.52;53.63;65.89;;
77135;Laerm;48586;50.122;18.972;2023-11-21T13:16:41;59.07;54.21;63.84;;
77135;Laerm;48586;50.122;18.972;2023-11-21T13:19:49;58.71;53.85;65.28;;
77135;Laerm;48586;50.122;18.972;2023-11-21T13:22:58;59.40;54.11;69.77;;
77135;Laerm;48586;50.122;18.972;2023-11-21T13:26:07;59.08;54.49;67.07;;
77135;Laerm;48586;50.122;18.972;2023-11-21T13:29:15;58.83;54.12;63.85;;
77135;Laerm;48586;50.122;18.972;2023-11-21T13:32:19;58.38;53.88;63.62;;
77135;Laerm;48586;50.122;18.972;2023-11-21T13:35:27;58.55;54.34;63.69;;
77135;Laerm;48586;50.122;18.972;2023-11-21T13:38:39;58.72;54.20;63.75;;
77135;Laerm;48586;50.122;18.972;2023-11-21T13:41:52;58.80;53.80;63.99;;
77135;Laerm;48586;50.122;18.972;2023-11-21T13:44:59;58.50;54.10;64.45;;
77135;Laerm;48586;50.122;18.972;2023-11-21T13:48:06;58.38;53.66;64.27;;
77135;Laerm;48586;50.122;18.972;2023-11-21T13:51:12;58.60;54.11;64.13;;
77135;Laerm;48586;50.122;18.972;2023-11-21T13:54:20;58.95;54.49;65.17;;
77135;Laerm;48586;50.122;18.972;2023-11-21T13:57:29;58.78;54.22;64.22;;
77135;Laerm;48586;50.122;18.972;2023-11-21T14:00:36;59.69;54.53;65.19;;
77135;Laerm;48586;50.122;18.972;2023-11-21T14:03:47;59.29;54.56;64.86;;
77135;Laerm;48586;50.122;18.972;2023-11-21T14:07:00;59.05;54.64;64.07;;
77135;Laerm;48586;50.122;18.972;2023-11-21T14:10:22;58.81;54.08;64.40;;
77135;Laerm;48586;50.122;18.972;2023-11-21T14:13:32;59.02;54.49;64.02;;
77135;Laerm;48586;50.122;18.972;2023-11-21T14:16:38;59.11;54.73;64.80;;
77135;Laerm;48586;50.122;18.972;2023-11-21T14:19:45;59.10;54.31;64.69;;
77135;Laerm;48586;50.122;18.972;2023-11-21T14:22:51;59.16;54.70;64.88;;
77135;Laerm;48586;50.122;18.972;2023-11-21T14:25:58;59.15;54.82;68.27;;
77135;Laerm;48586;50.122;18.972;2023-11-21T14:32:42;59.16;54.64;64.91;;
77135;Laerm;48586;50.122;18.972;2023-11-21T14:35:46;58.94;54.31;70.74;;
77135;Laerm;48586;50.122;18.972;2023-11-21T14:38:53;59.18;54.73;65.01;;
77135;Laerm;48586;50.122;18.972;2023-11-21T14:41:58;59.15;54.49;65.49;;
77135;Laerm;48586;50.122;18.972;2023-11-21T14:45:07;59.30;54.94;67.03;;
77135;Laerm;48586;50.122;18.972;2023-11-21T14:48:18;59.06;54.86;67.13;;
77135;Laerm;48586;50.122;18.972;2023-11-21T14:51:40;58.90;54.58;64.93;;
77135;Laerm;48586;50.122;18.972;2023-11-21T14:55:01;58.76;54.60;64.15;;
77135;Laerm;48586;50.122;18.972;2023-11-21T14:58:23;58.99;54.54;64.52;;
77135;Laerm;48586;50.122;18.972;2023-11-21T15:01:32;59.28;54.69;64.61;;
77135;Laerm;48586;50.122;18.972;2023-11-21T15:04:50;59.44;54.88;68.39;;
77135;Laerm;48586;50.122;18.972;2023-11-21T15:08:04;59.13;54.82;65.17;;
77135;Laerm;48586;50.122;18.972;2023-11-21T15:11:24;59.45;54.89;65.04;;
77135;Laerm;48586;50.122;18.972;2023-11-21T15:14:32;59.03;53.92;65.99;;
77135;Laerm;48586;50.122;18.972;2023-11-21T15:17:40;59.09;54.47;64.59;;
77135;Laerm;48586;50.122;18.972;2023-11-21T15:20:48;58.81;53.87;64.92;;
77135;Laerm;48586;50.122;18.972;2023-11-21T15:23:53;59.08;54.56;64.22;;
77135;Laerm;48586;50.122;18.972;2023-11-21T15:26:59;58.93;54.11;64.24;;
77135;Laerm;48586;50.122;18.972;2023-11-21T15:30:08;59.20;54.06;64.63;;
77135;Laerm;48586;50.122;18.972;2023-11-21T15:33:13;58.97;54.71;64.66;;
77135;Laerm;48586;50.122;18.972;2023-11-21T15:36:26;59.07;54.15;68.86;;
77135;Laerm;48586;50.122;18.972;2023-11-21T15:39:31;59.01;54.73;64.13;;
77135;Laerm;48586;50.122;18.972;2023-11-21T15:42:37;59.17;54.71;64.36;;
77135;Laerm;48586;50.122;18.972;2023-11-21T15:45:43;59.36;54.81;64.21;;
77135;Laerm;48586;50.122;18.972;2023-11-21T15:48:51;58.98;54.49;64.82;;
77135;Laerm;48586;50.122;18.972;2023-11-21T15:52:00;59.20;54.72;65.07;;
77135;Laerm;48586;50.122;18.972;2023-11-21T15:55:07;59.06;54.50;65.13;;
77135;Laerm;48586;50.122;18.972;2023-11-21T15:58:12;59.66;54.35;72.74;;
77135;Laerm;48586;50.122;18.972;2023-11-21T16:01:18;59.04;54.70;63.92;;
77135;Laerm;48586;50.122;18.972;2023-11-21T16:04:24;58.95;54.77;66.21;;
77135;Laerm;48586;50.122;18.972;2023-11-21T16:07:34;58.99;54.53;64.13;;
77135;Laerm;48586;50.122;18.972;2023-11-21T16:10:43;58.79;54.43;65.99;;
77135;Laerm;48586;50.122;18.972;2023-11-21T16:13:49;58.86;54.51;64.58;;
77135;Laerm;48586;50.122;18.972;2023-11-21T16:16:55;58.99;54.62;65.81;;
77135;Laerm;48586;50.122;18.972;2023-11-21T16:20:01;58.69;54.38;64.42;;
77135;Laerm;48586;50.122;18.972;2023-11-21T16:23:14;58.61;54.16;64.23;;
77135;Laerm;48586;50.122;18.972;2023-11-21T16:26:23;58.66;54.27;64.80;;
77135;Laerm;48586;50.122;18.972;2023-11-21T16:29:29;58.95;54.43;64.19;;
77135;Laerm;48586;50.122;18.972;2023-11-21T16:32:37;58.89;54.20;64.16;;
77135;Laerm;48586;50.122;18.972;2023-11-21T16:35:42;58.86;54.17;65.43;;
77135;Laerm;48586;50.122;18.972;2023-11-21T16:38:53;58.65;54.45;65.50;;
77135;Laerm;48586;50.122;18.972;2023-11-21T16:42:00;58.68;54.40;64.28;;
77135;Laerm;48586;50.122;18.972;2023-11-21T16:45:08;58.86;54.51;64.08;;
77135;Laerm;48586;50.122;18.972;2023-11-21T16:48:14;58.80;54.13;64.48;;
77135;Laerm;48586;50.122;18.972;2023-11-21T16:51:20;58.92;54.27;64.22;;
77135;Laerm;48586;50.122;18.972;2023-11-21T16:54:28;58.50;54.06;63.93;;
77135;Laerm;48586;50.122;18.972;2023-11-21T16:57:37;58.95;54.29;65.00;;
77135;Laerm;48586;50.122;18.972;2023-11-21T17:00:42;58.62;54.28;64.02;;
77135;Laerm;48586;50.122;18.972;2023-11-21T17:03:50;58.53;54.17;64.11;;
77135;Laerm;48586;50.122;18.972;2023-11-21T17:06:56;58.28;54.09;64.33;;
77135;Laerm;48586;50.122;18.972;2023-11-21T17:10:09;58.24;54.12;63.46;;
77135;Laerm;48586;50.122;18.972;2023-11-21T17:13:15;58.77;54.26;64.12;;
77135;Laerm;48586;50.122;18.972;2023-11-21T17:16:21;68.10;53.77;84.74;;
77135;Laerm;48586;50.122;18.972;2023-11-21T17:19:28;64.13;54.26;82.22;;
77135;Laerm;48586;50.122;18.972;2023-11-21T17:22:37;58.29;53.90;63.50;;
77135;Laerm;48586;50.122;18.972;2023-11-21T17:25:45;58.59;54.58;63.61;;